Time;durP1;ratioP1;P1;durP2;ratioP2;P2;SDS_P1;SDS_P2;PMS_P1;PMS_P2;Temp;Humidity;BMP_temperature;BMP_pressure;BME280_temperature;BME280_humidity;BME280_pressure;Samples;Min_cycle;Max_cycle;Signal;HPM_P1;HPM_P2
2022/06/24 00:01:56;;;;;;;13.15;2.72;;;;;;;26.55;46.14;101348.53;4150552;28;20046;-72
2022/06/24 00:03:58;;;;;;;9.30;2.65;;;;;;;26.55;45.96;101346.56;4148885;28;20085;-72
2022/06/24 00:05:59;;;;;;;7.18;2.90;;;;;;;26.53;45.70;101346.03;4150883;28;20045;-72
2022/06/24 00:08:05;;;;;;;6.78;3.08;;;;;;;26.40;46.20;101320.72;4153848;28;20092;-72
2022/06/24 00:10:36;;;;;;;9.75;3.05;;;;;;;26.54;46.01;101347.69;4149358;28;20544;-72
2022/06/24 00:12:40;;;;;;;5.88;2.70;;;;;;;26.56;45.97;101350.19;4150437;28;20038;-72
2022/06/24 00:14:45;;;;;;;5.80;2.42;;;;;;;26.55;46.17;101342.91;4148044;28;20042;-72
2022/06/24 00:17:03;;;;;;;7.57;3.08;;;;;;;26.55;45.82;101342.91;4149695;28;20097;-72
2022/06/24 00:19:11;;;;;;;11.25;2.70;;;;;;;26.55;45.78;101337.31;4149689;28;20050;-72
2022/06/24 00:21:15;;;;;;;5.53;2.45;;;;;;;26.47;45.63;101326.78;4152841;28;20037;-73
2022/06/24 00:23:20;;;;;;;8.18;3.15;;;;;;;26.52;45.69;101332.28;4149264;28;20026;-74
2022/06/24 00:25:28;;;;;;;7.50;2.80;;;;;;;26.52;45.58;101332.28;4148626;28;20046;-72
2022/06/24 00:27:29;;;;;;;7.95;2.45;;;;;;;26.55;45.60;101337.31;4140103;28;20096;-72
2022/06/24 00:29:33;;;;;;;7.28;2.72;;;;;;;26.54;45.72;101339.28;4137646;28;20046;-72
2022/06/24 00:31:34;;;;;;;8.52;2.72;;;;;;;26.55;45.50;101335.31;4145502;28;20452;-72
2022/06/24 00:33:40;;;;;;;5.07;2.47;;;;;;;26.53;45.76;101328.38;4144319;28;20041;-72
2022/06/24 00:35:47;;;;;;;8.00;2.72;;;;;;;26.51;45.28;101336.25;4144859;28;20042;-72
2022/06/24 00:37:48;;;;;;;8.18;2.80;;;;;;;26.52;45.70;101340.72;4143905;28;20046;-72
2022/06/24 00:39:51;;;;;;;7.95;2.60;;;;;;;26.56;45.57;101344.56;4151656;28;20072;-72
2022/06/24 00:41:53;;;;;;;9.85;3.17;;;;;;;26.56;45.76;101344.56;4146688;28;20041;-71
2022/06/24 00:43:58;;;;;;;6.32;2.80;;;;;;;26.55;45.60;101354.13;4139445;28;20038;-72
2022/06/24 00:46:27;;;;;;;7.95;2.92;;;;;;;26.48;45.94;101348.09;4141177;28;20033;-72
2022/06/24 00:48:30;;;;;;;7.88;3.05;;;;;;;26.55;45.77;101342.91;4140404;28;20436;-73
2022/06/24 00:50:32;;;;;;;9.27;4.03;;;;;;;26.54;45.61;101355.28;4143522;28;20088;-73
2022/06/24 00:52:41;;;;;;;5.80;3.00;;;;;;;26.51;45.67;101353.09;4143712;28;20072;-73
2022/06/24 00:54:43;;;;;;;9.55;3.45;;;;;;;26.53;45.64;101357.25;4139105;28;20038;-73
2022/06/24 00:56:53;;;;;;;15.27;3.88;;;;;;;26.48;45.71;101353.69;4144031;28;20054;-73
2022/06/24 00:59:13;;;;;;;7.00;3.00;;;;;;;26.52;45.87;101361.19;4146858;28;20096;-73
2022/06/24 01:01:15;;;;;;;11.35;3.53;;;;;;;26.54;45.91;101364.53;4146068;28;20135;-73
2022/06/24 01:03:34;;;;;;;7.55;3.28;;;;;;;26.50;45.89;101351.44;4144530;28;20042;-72
2022/06/24 01:05:35;;;;;;;9.10;4.03;;;;;;;26.52;45.79;101360.38;4148431;28;20100;-73
2022/06/24 01:07:38;;;;;;;11.10;3.60;;;;;;;26.43;46.06;101349.00;4144393;28;20104;-73
2022/06/24 01:09:43;;;;;;;9.32;2.97;;;;;;;26.52;46.05;101372.41;4139664;28;20046;-73
2022/06/24 01:11:44;;;;;;;;;;;;;;;26.50;46.03;101362.66;4156883;28;20100;-73
2022/06/24 01:13:45;;;;;;;11.15;4.25;;;;;;;26.55;46.08;101359.75;4142335;28;19928;-73
2022/06/24 01:15:47;;;;;;;9.55;4.13;;;;;;;26.53;46.25;101368.50;4141732;28;20461;-72
2022/06/24 01:17:48;;;;;;;10.82;3.63;;;;;;;26.53;46.20;101367.66;4142249;28;20104;-73
2022/06/24 01:19:49;;;;;;;9.63;4.07;;;;;;;26.52;45.88;101371.59;4148504;28;20037;-72
2022/06/24 01:21:51;;;;;;;11.48;3.72;;;;;;;26.51;46.10;101376.38;4144314;28;20089;-73
2022/06/24 01:24:04;;;;;;;11.68;4.07;;;;;;;26.48;46.21;101370.53;4147192;28;20037;-73
2022/06/24 01:26:08;;;;;;;13.82;4.00;;;;;;;26.40;45.95;101360.00;4143785;28;20034;-73
2022/06/24 01:28:09;;;;;;;9.18;3.88;;;;;;;26.50;46.43;101385.13;4141836;28;20042;-73
2022/06/24 01:30:11;;;;;;;10.15;3.50;;;;;;;26.50;46.25;101382.31;4130299;28;20113;-73
2022/06/24 01:32:13;;;;;;;7.93;3.25;;;;;;;26.50;46.07;101390.72;4140730;28;20026;-73
2022/06/24 01:34:16;;;;;;;7.85;3.92;;;;;;;26.48;46.31;101385.44;4144572;28;20054;-73
2022/06/24 01:36:17;;;;;;;7.70;3.60;;;;;;;26.49;46.15;101384.28;4144628;28;20038;-73
2022/06/24 01:38:18;;;;;;;6.50;3.35;;;;;;;26.49;45.83;101389.06;4130610;28;20161;-73
2022/06/24 01:40:23;;;;;;;10.13;3.90;;;;;;;26.45;46.09;101393.63;4145635;28;20046;-73
2022/06/24 01:42:26;;;;;;;8.07;3.57;;;;;;;26.46;46.16;101395.28;4146056;28;20037;-73
2022/06/24 01:44:28;;;;;;;6.55;3.15;;;;;;;26.34;46.21;101382.56;4144003;28;20427;-73
2022/06/24 01:46:29;;;;;;;8.45;3.88;;;;;;;26.51;45.72;101409.22;4146943;28;20108;-73
2022/06/24 01:48:31;;;;;;;8.27;3.75;;;;;;;26.51;45.90;101409.22;4144022;28;20046;-73
2022/06/24 01:50:34;;;;;;;8.85;4.03;;;;;;;26.49;45.90;101411.50;4143716;28;20096;-73
2022/06/24 01:52:36;;;;;;;9.52;3.78;;;;;;;26.50;45.87;101407.56;4146652;28;20030;-73
2022/06/24 01:54:37;;;;;;;6.05;3.40;;;;;;;26.43;46.08;101407.09;4137659;28;20042;-75
2022/06/24 01:56:39;;;;;;;9.95;3.65;;;;;;;26.49;45.40;101420.75;4143629;28;20029;-73
2022/06/24 01:58:40;;;;;;;7.22;3.40;;;;;;;26.49;45.75;101422.75;4142908;28;20042;-74
2022/06/24 02:00:42;;;;;;;9.57;3.65;;;;;;;26.40;45.92;101407.72;4144361;28;20033;-78
2022/06/24 02:02:43;;;;;;;8.60;3.90;;;;;;;26.49;45.81;101417.97;4146722;28;20030;-76
2022/06/24 02:04:47;;;;;;;12.27;4.05;;;;;;;26.27;45.78;101384.09;4146297;28;20428;-80
2022/06/24 02:06:52;;;;;;;12.70;4.13;;;;;;;26.40;45.75;101407.72;4143433;28;20053;-84
2022/06/24 02:08:53;;;;;;;9.80;3.85;;;;;;;26.50;45.50;101418.78;4138027;28;20037;-83
2022/06/24 02:13:26;;;;;;;10.68;3.60;;;;;;;26.29;45.76;101391.03;4146462;28;20555;-77
2022/06/24 02:15:28;;;;;;;12.00;3.90;;;;;;;26.50;45.75;101424.41;4147705;28;20080;-75
2022/06/24 02:17:32;;;;;;;10.35;4.20;;;;;;;26.49;45.92;101422.75;4144175;28;20100;-73
2022/06/24 02:19:34;;;;;;;12.05;4.10;;;;;;;26.41;45.78;101410.19;4144610;28;20115;-75
2022/06/24 02:21:36;;;;;;;10.65;3.90;;;;;;;26.41;45.58;101415.00;4146408;28;20037;-76
2022/06/24 02:23:37;;;;;;;6.72;3.28;;;;;;;26.45;45.71;101421.69;4142173;28;20042;-74
2022/06/24 02:25:38;;;;;;;9.70;3.72;;;;;;;26.48;45.67;101421.91;4146457;28;20105;-75
2022/06/24 02:27:40;;;;;;;10.35;3.63;;;;;;;26.48;45.75;101423.84;4146370;28;20029;-76
2022/06/24 02:29:44;;;;;;;10.00;3.42;;;;;;;26.41;45.66;101415.00;4146770;28;20449;-73
2022/06/24 02:31:45;;;;;;;9.57;3.53;;;;;;;26.39;45.53;101414.44;4144817;28;20041;-74
2022/06/24 02:33:49;;;;;;;8.35;3.65;;;;;;;26.48;45.50;101429.47;4147813;28;20559;-75
2022/06/24 02:35:50;;;;;;;12.23;3.72;;;;;;;26.40;45.64;101424.56;4145535;28;20049;-75
2022/06/24 02:37:52;;;;;;;7.97;3.53;;;;;;;26.40;45.46;101418.94;4149130;28;20045;-76
2022/06/24 02:40:45;;;;;;;8.98;3.53;;;;;;;26.45;45.64;101432.91;4159226;28;20033;-75
2022/06/24 02:42:18;;;;;;;6.97;3.10;;;;;;;26.46;45.41;101428.97;4140741;28;20563;-74
2022/06/24 02:44:19;;;;;;;7.53;4.07;;;;;;;26.47;45.26;101436.22;4140481;28;20105;-75
2022/06/24 02:46:20;;;;;;;11.50;3.45;;;;;;;26.46;45.51;101440.19;4138489;28;20093;-80
2022/06/24 02:48:22;;;;;;;6.47;3.20;;;;;;;26.46;45.33;101440.19;4143014;28;20050;-78
2022/06/24 02:50:23;;;;;;;10.55;3.22;;;;;;;26.42;45.36;101428.69;4147714;28;20038;-75
2022/06/24 02:52:25;;;;;;;9.93;2.95;;;;;;;26.45;45.10;101438.53;4146809;28;20046;-77
2022/06/24 02:54:26;;;;;;;5.43;3.20;;;;;;;26.45;45.04;101438.53;4147764;28;20046;-76
2022/06/24 02:56:28;;;;;;;7.75;3.20;;;;;;;26.45;45.21;101433.75;4146027;28;20049;-83
2022/06/24 02:58:32;;;;;;;8.13;3.20;;;;;;;26.47;45.07;101436.22;4148421;28;20112;-82
2022/06/24 03:00:39;;;;;;;6.50;2.92;;;;;;;26.39;45.36;101423.72;4146993;28;20038;-83
2022/06/24 03:02:43;;;;;;;6.78;3.65;;;;;;;26.46;45.29;101426.16;4149706;28;20042;-78
2022/06/24 03:04:44;;;;;;;7.30;3.40;;;;;;;26.39;45.51;101417.25;4148006;28;20096;-84
2022/06/24 03:06:46;;;;;;;7.93;3.22;;;;;;;26.46;45.20;101426.97;4149643;28;20026;-82
2022/06/24 03:08:47;;;;;;;6.50;3.33;;;;;;;26.47;45.25;101436.22;4147405;28;20440;-77
2022/06/24 03:10:52;;;;;;;11.02;3.75;;;;;;;26.35;45.18;101411.44;4145940;28;20042;-78
2022/06/24 03:12:53;;;;;;;7.63;3.13;;;;;;;26.46;45.38;101432.59;4146441;28;20087;-80
2022/06/24 03:14:58;;;;;;;10.48;3.00;;;;;;;26.36;45.22;101419.53;4165462;28;20033;-78
2022/06/24 03:16:59;;;;;;;6.07;2.83;;;;;;;26.47;45.12;101422.19;4145783;28;20520;-79
2022/06/24 03:19:00;;;;;;;26.02;3.85;;;;;;;26.46;45.44;101417.72;4145515;28;20031;-78
2022/06/24 03:21:02;;;;;;;17.15;3.78;;;;;;;26.46;45.38;101428.97;4145452;28;20026;-74
2022/06/24 03:23:04;;;;;;;7.82;3.20;;;;;;;26.45;45.11;101430.09;4160696;28;20539;-73
2022/06/24 03:25:09;;;;;;;7.72;2.88;;;;;;;26.22;44.95;101396.22;4151320;28;20031;-73
2022/06/24 03:27:10;;;;;;;;;;;;;;;26.44;45.21;101420.84;4149590;28;20065;-74
2022/06/24 03:29:11;;;;;;;9.98;2.90;;;;;;;26.25;44.95;101386.34;4151334;28;19924;-75
2022/06/24 03:31:13;;;;;;;11.20;3.42;;;;;;;26.40;44.52;101400.13;4152586;28;20037;-77
2022/06/24 03:33:15;;;;;;;20.38;3.47;;;;;;;26.45;43.77;101416.06;4149269;28;20057;-76
2022/06/24 03:35:16;;;;;;;13.27;3.90;;;;;;;26.42;43.06;101416.66;4144962;28;20038;-80
2022/06/24 03:37:17;;;;;;;15.18;4.28;;;;;;;26.32;42.95;101417.66;4149058;28;20054;-77
2022/06/24 03:39:19;;;;;;;15.20;3.97;;;;;;;26.30;42.57;101423.59;4151139;28;20072;-77
2022/06/24 03:41:23;;;;;;;13.55;4.07;;;;;;;26.18;42.41;101420.41;4149033;28;20126;-77
2022/06/24 03:43:24;;;;;;;12.23;4.60;;;;;;;26.09;41.98;101408.22;4149495;28;20037;-77
2022/06/24 03:45:26;;;;;;;12.10;3.88;;;;;;;26.13;42.05;101426.09;4160989;28;20440;-83
2022/06/24 03:47:27;;;;;;;12.80;4.35;;;;;;;26.06;41.38;101425.66;4132283;28;20038;-80
2022/06/24 03:49:31;;;;;;;8.73;3.97;;;;;;;26.03;41.36;101426.28;4138954;28;20080;-81
2022/06/24 03:51:37;;;;;;;12.98;3.95;;;;;;;25.98;41.25;101429.13;4163728;28;20099;-80
2022/06/24 03:53:41;;;;;;;13.18;4.45;;;;;;;25.87;40.87;101413.63;4160514;28;20477;-78
2022/06/24 03:55:48;;;;;;;25.53;5.37;;;;;;;25.88;40.91;101423.69;4149547;28;20022;-77
2022/06/24 03:57:51;;;;;;;15.07;4.55;;;;;;;25.85;40.93;101425.97;4148694;28;20030;-78
2022/06/24 03:59:52;;;;;;;15.02;4.57;;;;;;;25.83;40.55;101416.19;4150727;28;20030;-81
2022/06/24 04:01:57;;;;;;;16.98;4.55;;;;;;;25.80;40.62;101434.47;4151672;28;20030;-79
2022/06/24 04:03:59;;;;;;;18.02;4.13;;;;;;;25.70;40.72;101416.91;4150900;28;20042;-81
2022/06/24 04:06:00;;;;;;;20.50;4.53;;;;;;;25.73;40.53;101422.75;4152072;28;20469;-86
2022/06/24 04:08:02;;;;;;;20.73;5.25;;;;;;;25.73;40.68;101424.72;4151329;28;20029;-83
2022/06/24 04:10:03;;;;;;;12.68;4.20;;;;;;;25.73;40.60;101427.53;4151573;28;20064;-85
2022/06/24 04:12:05;;;;;;;17.85;4.32;;;;;;;25.69;40.23;101421.69;4152550;28;20092;-88
2022/06/24 04:14:12;;;;;;;17.75;4.35;;;;;;;25.69;40.25;101424.47;4151052;28;20030;-85
2022/06/24 04:16:13;;;;;;;27.05;4.63;;;;;;;25.69;40.66;101426.44;4153375;28;20037;-80
2022/06/24 04:18:18;;;;;;;29.15;5.28;;;;;;;25.70;40.82;101423.34;4159040;28;20081;-81
2022/06/24 04:20:19;;;;;;;48.25;5.45;;;;;;;25.70;40.79;101419.69;4154974;28;20046;-77
2022/06/24 04:22:21;;;;;;;29.98;5.93;;;;;;;25.68;40.24;101414.41;4155758;28;20096;-87
2022/06/24 04:24:23;;;;;;;50.35;7.57;;;;;;;25.68;40.28;101425.63;4165382;28;20076;-79
2022/06/24 04:26:24;;;;;;;26.60;4.93;;;;;;;25.66;39.57;101413.91;4155941;28;20092;-79
2022/06/24 04:28:25;;;;;;;23.40;4.85;;;;;;;25.63;39.49;101411.69;4155235;28;20081;-83
2022/06/24 04:30:27;;;;;;;21.65;4.63;;;;;;;25.59;39.92;101416.22;4142777;28;20045;-85
2022/06/24 04:32:28;;;;;;;15.65;3.88;;;;;;;25.57;40.76;101418.50;4141111;28;20046;-85
2022/06/24 04:34:30;;;;;;;13.40;4.28;;;;;;;25.57;40.24;101415.69;4160909;28;20041;-83
2022/06/24 04:36:31;;;;;;;18.90;4.35;;;;;;;25.50;39.84;101412.44;4165956;28;20045;-81
2022/06/24 04:38:32;;;;;;;13.55;4.18;;;;;;;25.49;39.77;101416.38;4154781;28;20116;-81
2022/06/24 04:40:34;;;;;;;16.83;4.75;;;;;;;25.46;39.61;101428.16;4153478;28;20034;-82
2022/06/24 04:42:37;;;;;;;16.77;3.85;;;;;;;25.43;40.15;101420.34;4137305;28;20046;-80
2022/06/24 04:44:41;;;;;;;15.35;4.40;;;;;;;25.43;40.42;101418.41;4151641;28;20065;-81
2022/06/24 04:46:43;;;;;;;13.43;4.30;;;;;;;25.43;40.16;101421.22;4138363;28;20070;-81
2022/06/24 04:48:44;;;;;;;13.90;3.75;;;;;;;25.42;39.97;101419.53;4153632;28;20033;-83
2022/06/24 04:50:45;;;;;;;14.48;3.83;;;;;;;25.22;39.94;101388.97;4158800;28;20099;-82
2022/06/24 04:52:49;;;;;;;13.48;4.15;;;;;;;25.39;39.87;101427.72;4170795;28;20045;-84
2022/06/24 04:54:51;;;;;;;13.75;4.00;;;;;;;25.33;39.87;101424.13;4167080;28;20048;-83
2022/06/24 04:56:52;;;;;;;14.40;4.30;;;;;;;25.35;39.71;101433.91;4156992;28;20041;-86
2022/06/24 04:58:54;;;;;;;15.02;4.20;;;;;;;25.35;39.73;101428.31;4153781;28;20037;-81
2022/06/24 05:00:55;;;;;;;11.77;3.45;;;;;;;25.33;39.24;101441.75;4152331;28;20096;-81
2022/06/24 05:02:57;;;;;;;15.32;5.43;;;;;;;25.31;39.29;101435.63;4151772;28;20050;-82
2022/06/24 05:04:58;;;;;;;11.70;3.97;;;;;;;25.26;39.50;101434.88;4152735;28;20049;-77
2022/06/24 05:07:00;;;;;;;12.70;4.20;;;;;;;25.26;39.46;101441.31;4161957;28;20041;-78
2022/06/24 05:09:01;;;;;;;8.27;3.38;;;;;;;25.26;39.19;101444.09;4151967;28;20034;-77
2022/06/24 05:11:06;;;;;;;12.15;3.75;;;;;;;25.23;39.26;101441.06;4163977;28;20520;-77
2022/06/24 05:13:08;;;;;;;9.18;3.75;;;;;;;25.22;38.80;101445.84;4145882;28;20046;-78
2022/06/24 05:15:10;;;;;;;10.50;3.53;;;;;;;25.23;38.93;101452.25;4151551;28;20037;-75
2022/06/24 05:17:12;;;;;;;10.27;3.42;;;;;;;25.12;38.76;101433.94;4148106;28;20116;-78
2022/06/24 05:19:13;;;;;;;10.02;3.72;;;;;;;25.14;38.70;101434.44;4149942;28;20042;-78
2022/06/24 05:21:14;;;;;;;11.02;3.78;;;;;;;25.16;38.79;101441.44;4153047;28;20068;-84
2022/06/24 05:23:16;;;;;;;10.23;3.60;;;;;;;25.17;38.54;101445.91;4157850;28;20432;-83
2022/06/24 05:25:20;;;;;;;12.55;3.35;;;;;;;25.10;38.64;101443.44;4161817;28;20096;-81
2022/06/24 05:27:21;;;;;;;9.15;3.35;;;;;;;25.12;38.83;101443.16;4152399;28;20038;-81
2022/06/24 05:29:25;;;;;;;9.40;3.35;;;;;;;25.12;38.35;101451.56;4150545;28;20096;-83
2022/06/24 05:31:27;;;;;;;7.50;3.08;;;;;;;25.11;38.54;101438.69;4136353;28;20030;-83
2022/06/24 05:33:33;;;;;;;8.18;3.25;;;;;;;25.06;38.66;101442.34;4138519;28;20083;-83
2022/06/24 05:35:34;;;;;;;9.25;3.13;;;;;;;25.06;38.75;101442.34;4149750;28;20038;-84
2022/06/24 05:37:38;;;;;;;9.43;3.53;;;;;;;25.07;38.51;101448.78;4152518;28;20046;-86
2022/06/24 05:39:39;;;;;;;8.40;3.13;;;;;;;25.02;38.55;101446.03;4150606;28;20037;-87
2022/06/24 05:41:43;;;;;;;6.32;3.08;;;;;;;25.05;38.23;101451.03;4151514;28;20493;-88
2022/06/24 05:43:46;;;;;;;11.07;2.72;;;;;;;25.04;38.39;101452.16;4165160;28;20041;-81
2022/06/24 05:45:48;;;;;;;7.20;3.20;;;;;;;25.03;38.33;101456.94;4150362;28;20046;-81
2022/06/24 05:47:52;;;;;;;5.75;2.95;;;;;;;25.00;38.34;101451.91;4149702;28;20025;-81
2022/06/24 05:49:53;;;;;;;8.57;2.72;;;;;;;24.99;38.40;101453.06;4148259;28;20417;-81
2022/06/24 05:51:54;;;;;;;4.78;2.33;;;;;;;24.99;38.39;101455.03;4144048;28;20069;-80
2022/06/24 05:56:16;;;;;;;7.07;2.75;;;;;;;24.95;38.08;101463.19;4155868;28;20076;-82
2022/06/24 05:58:17;;;;;;;6.85;2.78;;;;;;;24.93;38.13;101461.81;4148938;28;20067;-82
2022/06/24 06:00:19;;;;;;;8.35;3.33;;;;;;;24.94;38.13;101460.69;4155636;28;20038;-88
2022/06/24 06:02:22;;;;;;;6.63;2.80;;;;;;;24.92;38.06;101465.72;4148850;28;20077;-86
2022/06/24 06:04:24;;;;;;;5.60;2.78;;;;;;;24.91;38.24;101464.06;4149794;28;20084;-83
2022/06/24 06:06:25;;;;;;;5.38;2.60;;;;;;;24.89;37.75;101463.53;4148926;28;20088;-82
2022/06/24 06:08:26;;;;;;;5.55;2.75;;;;;;;24.81;38.11;101456.59;4149839;28;20038;-83
2022/06/24 06:10:27;;;;;;;7.97;3.10;;;;;;;24.88;37.81;101470.25;4149887;28;20049;-85
2022/06/24 06:12:29;;;;;;;7.47;3.05;;;;;;;24.88;37.76;101467.44;4156735;28;20099;-87
2022/06/24 06:14:30;;;;;;;4.90;2.33;;;;;;;24.87;37.68;101465.78;4153564;28;20096;-85
2022/06/24 06:16:32;;;;;;;6.75;2.97;;;;;;;24.85;38.03;101472.53;4148727;28;20456;-85
2022/06/24 06:18:33;;;;;;;5.57;2.70;;;;;;;24.82;37.88;101464.69;4151494;28;20049;-86
2022/06/24 06:20:34;;;;;;;4.47;2.63;;;;;;;24.81;37.65;101468.63;4146278;28;20053;-85
2022/06/24 06:22:36;;;;;;;5.60;2.72;;;;;;;24.82;37.70;101467.50;4149143;28;20071;-80
2022/06/24 06:24:40;;;;;;;6.38;3.00;;;;;;;24.79;37.90;101464.47;4148060;28;20461;-79
2022/06/24 06:26:48;;;;;;;5.00;2.95;;;;;;;24.79;37.71;101458.88;4151829;28;20481;-78
2022/06/24 06:28:53;;;;;;;6.10;2.58;;;;;;;24.73;37.77;101460.88;4155723;28;20084;-84
2022/06/24 06:30:55;;;;;;;8.43;2.95;;;;;;;24.77;37.48;101475.94;4148601;28;20061;-83
2022/06/24 06:32:59;;;;;;;4.50;2.25;;;;;;;24.69;37.41;101459.78;4148465;28;20096;-82
2022/06/24 06:35:01;;;;;;;5.47;2.85;;;;;;;24.76;37.63;101470.66;4160034;28;20083;-81
2022/06/24 06:37:02;;;;;;;4.90;2.53;;;;;;;24.74;37.64;101479.34;4149547;28;20100;-79
2022/06/24 06:39:03;;;;;;;4.97;2.45;;;;;;;24.73;37.45;101468.44;4146814;28;20033;-79
2022/06/24 06:41:05;;;;;;;5.40;2.47;;;;;;;24.75;37.54;101481.03;4132238;28;20053;-80
2022/06/24 06:43:09;;;;;;;5.50;2.63;;;;;;;24.74;37.71;101478.50;4138479;28;20046;-80
2022/06/24 06:45:13;;;;;;;4.05;2.25;;;;;;;24.69;37.37;101462.59;4151792;28;20092;-80
2022/06/24 06:47:15;;;;;;;5.80;2.53;;;;;;;24.70;37.27;101472.69;4165546;28;20091;-80
2022/06/24 06:49:16;;;;;;;5.30;2.22;;;;;;;24.70;37.37;101472.69;4159803;28;20022;-81
2022/06/24 06:51:20;;;;;;;4.28;2.20;;;;;;;24.69;37.17;101462.59;4150408;28;20104;-80
2022/06/24 06:53:26;;;;;;;4.30;2.53;;;;;;;24.67;37.53;101467.66;4148185;28;20444;-78
2022/06/24 06:55:30;;;;;;;6.10;2.22;;;;;;;24.67;37.17;101459.25;4148913;28;20030;-80
2022/06/24 06:57:31;;;;;;;5.47;2.80;;;;;;;24.67;37.40;101466.81;4147863;28;20042;-80
2022/06/24 06:59:32;;;;;;;3.47;2.05;;;;;;;24.66;37.35;101463.19;4150337;28;20345;-80
2022/06/24 07:01:36;;;;;;;4.53;2.00;;;;;;;24.56;37.10;101452.09;4157896;28;20037;-81
2022/06/24 07:03:38;;;;;;;4.43;2.60;;;;;;;24.64;37.28;101462.63;4149090;28;20033;-82
2022/06/24 07:05:42;;;;;;;6.68;2.40;;;;;;;24.63;37.21;101460.97;4156848;28;20686;-80
2022/06/24 07:07:44;;;;;;;4.63;2.20;;;;;;;24.59;37.23;101454.28;4159324;28;20444;-85
2022/06/24 07:09:45;;;;;;;3.15;2.05;;;;;;;24.59;37.66;101460.72;4148041;28;20485;-85
2022/06/24 07:11:46;;;;;;;2.58;2.15;;;;;;;24.59;37.07;101454.28;4148226;28;20041;-85
2022/06/24 07:13:47;;;;;;;5.05;2.35;;;;;;;24.53;37.33;101444.28;4148890;28;20038;-86
2022/06/24 07:15:49;;;;;;;4.43;2.33;;;;;;;24.48;37.36;101435.94;4156138;28;20049;-84
2022/06/24 07:17:53;;;;;;;6.03;2.20;;;;;;;24.49;37.07;101440.41;4149417;28;20046;-84
2022/06/24 07:19:55;;;;;;;3.75;2.22;;;;;;;24.55;37.11;101453.19;4148385;28;20042;-85
2022/06/24 07:21:56;;;;;;;5.47;2.20;;;;;;;24.57;37.27;101456.56;4149830;28;20096;-85
2022/06/24 07:23:57;;;;;;;3.55;2.50;;;;;;;24.47;37.32;101445.47;4147830;28;20076;-83
2022/06/24 07:26:01;;;;;;;4.45;1.85;;;;;;;24.54;37.14;101457.97;4148518;28;20042;-79
2022/06/24 07:28:04;;;;;;;4.97;2.38;;;;;;;24.46;37.09;101444.59;4146764;28;20112;-79
2022/06/24 07:30:06;;;;;;;5.28;1.85;;;;;;;24.54;36.75;101457.13;4148297;28;20053;-82
2022/06/24 07:32:07;;;;;;;3.70;2.00;;;;;;;24.35;36.93;101423.44;4148213;28;20042;-79
2022/06/24 07:34:09;;;;;;;3.08;2.15;;;;;;;24.52;37.25;101457.44;4145534;28;20549;-80
2022/06/24 07:36:10;;;;;;;3.92;2.00;;;;;;;24.43;37.19;101444.38;4147774;28;20038;-79
2022/06/24 07:38:12;;;;;;;4.28;2.03;;;;;;;24.51;37.18;101464.19;4154125;28;20092;-80
2022/06/24 07:40:15;;;;;;;3.75;2.08;;;;;;;24.43;37.17;101442.41;4151038;28;20571;-79
2022/06/24 07:42:16;;;;;;;3.47;2.10;;;;;;;24.48;37.04;101452.72;4151715;28;20080;-78
2022/06/24 07:44:18;;;;;;;5.18;2.17;;;;;;;24.49;37.01;101457.19;4151409;28;20037;-77
2022/06/24 07:46:19;;;;;;;3.67;2.10;;;;;;;24.47;37.02;101451.91;4149460;28;20049;-81
2022/06/24 07:48:21;;;;;;;3.72;2.33;;;;;;;24.43;37.17;101445.22;4148491;28;20021;-76
2022/06/24 07:50:22;;;;;;;5.03;2.00;;;;;;;24.44;36.78;101458.06;4162214;28;20095;-77
2022/06/24 07:52:23;;;;;;;4.05;2.03;;;;;;;24.45;37.04;101456.09;4149744;28;20165;-77
2022/06/24 07:54:25;;;;;;;5.45;2.13;;;;;;;24.43;36.89;101455.56;4151170;28;20112;-77
2022/06/24 07:58:46;;;;;;;4.38;2.10;;;;;;;24.42;36.73;101467.88;4167915;28;20103;-79
2022/06/24 08:00:48;;;;;;;3.63;2.00;;;;;;;24.37;36.61;101462.31;4149561;28;20513;-79
2022/06/24 08:02:49;;;;;;;3.50;1.63;;;;;;;24.42;36.94;101470.66;4151338;28;20037;-79
2022/06/24 08:04:50;;;;;;;5.18;1.98;;;;;;;24.40;36.71;101465.38;4150754;28;20045;-78
2022/06/24 08:06:52;;;;;;;2.90;1.95;;;;;;;24.39;36.61;101469.28;4150763;28;20046;-79
2022/06/24 08:08:54;;;;;;;4.45;2.22;;;;;;;24.39;36.76;101476.84;4164191;28;20021;-79
2022/06/24 08:10:55;;;;;;;2.80;1.73;;;;;;;24.37;36.64;101479.94;4153262;28;20090;-81
2022/06/24 08:12:57;;;;;;;3.00;1.90;;;;;;;24.38;36.96;101483.59;4161902;28;20041;-79
2022/06/24 08:14:58;;;;;;;3.33;1.83;;;;;;;24.35;36.48;101477.41;4150938;28;20042;-79
2022/06/24 08:16:59;;;;;;;2.63;1.80;;;;;;;24.35;36.68;101474.59;4151346;28;20096;-78
2022/06/24 08:19:01;;;;;;;3.75;2.15;;;;;;;24.25;36.59;101463.50;4149703;28;20049;-79
2022/06/24 08:21:02;;;;;;;4.13;2.25;;;;;;;24.34;36.87;101488.88;4164604;28;20049;-81
2022/06/24 08:23:06;;;;;;;2.60;1.70;;;;;;;24.31;36.85;101486.66;4155249;28;20041;-82
2022/06/24 08:25:08;;;;;;;2.72;1.80;;;;;;;24.22;36.83;101475.25;4167126;28;20038;-80
2022/06/24 08:27:09;;;;;;;3.60;1.77;;;;;;;24.32;36.55;101494.75;4167304;28;20030;-82
2022/06/24 08:29:11;;;;;;;3.05;1.88;;;;;;;24.30;36.36;101499.81;4155095;28;20045;-83
2022/06/24 08:31:18;;;;;;;2.83;1.98;;;;;;;24.29;36.65;101495.34;4150285;28;20107;-82
2022/06/24 08:33:19;;;;;;;2.35;1.50;;;;;;;24.30;36.56;101501.78;4151183;28;20033;-82
2022/06/24 08:35:21;;;;;;;3.80;1.98;;;;;;;24.28;36.72;101493.69;4149579;28;20429;-82
2022/06/24 08:37:22;;;;;;;2.30;1.90;;;;;;;24.20;36.57;101476.69;4150372;28;20046;-82
2022/06/24 08:39:24;;;;;;;2.67;1.60;;;;;;;24.27;36.61;101493.97;4149026;28;20111;-82
2022/06/24 08:41:26;;;;;;;2.05;1.50;;;;;;;24.23;36.33;101498.47;4151611;28;20523;-83
2022/06/24 08:43:35;;;;;;;2.25;1.70;;;;;;;24.24;36.61;101506.59;4150639;28;20034;-82
2022/06/24 08:45:42;;;;;;;3.45;1.92;;;;;;;24.24;36.69;101505.75;4164277;28;20033;-84
2022/06/24 08:47:45;;;;;;;4.00;1.83;;;;;;;24.24;36.27;101506.59;4165707;28;20053;-83
2022/06/24 08:49:47;;;;;;;3.10;2.00;;;;;;;24.14;36.36;101498.25;4151740;28;20108;-84
2022/06/24 08:51:50;;;;;;;2.53;1.73;;;;;;;24.14;36.47;101491.81;4150678;28;20046;-84
2022/06/24 08:54:00;;;;;;;2.75;1.70;;;;;;;24.21;36.43;101509.94;4148843;28;20045;-84
2022/06/24 08:56:11;;;;;;;2.97;1.83;;;;;;;24.19;36.46;101501.03;4151475;28;20041;-83
2022/06/24 08:58:33;;;;;;;2.92;1.88;;;;;;;24.15;36.54;101501.91;4156827;28;20046;-83
2022/06/24 09:00:35;;;;;;;3.33;1.80;;;;;;;24.19;36.50;101505.75;4148907;28;20108;-83
2022/06/24 09:02:36;;;;;;;1.65;1.50;;;;;;;24.17;36.50;101503.25;4156515;28;20033;-83
2022/06/24 09:04:43;;;;;;;2.40;1.80;;;;;;;24.07;36.51;101487.38;4150466;28;20054;-83
2022/06/24 09:06:44;;;;;;;2.22;1.60;;;;;;;24.18;36.37;101509.69;4150177;28;20042;-83
2022/06/24 09:08:51;;;;;;;2.17;1.65;;;;;;;24.12;36.84;101508.88;4149491;28;20042;-83
2022/06/24 09:11:07;;;;;;;3.08;1.73;;;;;;;24.15;36.56;101518.66;4149912;28;20105;-83
2022/06/24 09:13:20;;;;;;;3.25;1.80;;;;;;;24.11;36.70;101507.22;4152503;28;20050;-83
2022/06/24 09:15:22;;;;;;;2.42;1.50;;;;;;;24.16;36.45;101521.16;4166396;28;20179;-83
2022/06/24 09:17:31;;;;;;;2.45;1.60;;;;;;;24.14;36.63;101515.00;4164046;28;20103;-83
2022/06/24 09:19:33;;;;;;;2.10;1.35;;;;;;;24.10;36.45;101508.34;4150683;28;20030;-83
2022/06/24 09:21:39;;;;;;;4.90;2.03;;;;;;;24.15;36.36;101522.31;4149802;28;20478;-83
2022/06/24 09:23:54;;;;;;;2.70;1.90;;;;;;;24.13;36.70;101524.53;4149561;28;20046;-83
2022/06/24 09:26:00;;;;;;;2.38;1.75;;;;;;;24.09;36.27;101517.84;4148980;28;20038;-83
2022/06/24 09:28:01;;;;;;;2.35;2.00;;;;;;;24.14;36.50;101531.78;4156672;28;20520;-85
2022/06/24 09:30:06;;;;;;;3.03;1.58;;;;;;;24.13;36.47;101534.88;4152206;28;20100;-81
2022/06/24 09:32:10;;;;;;;3.30;2.15;;;;;;;24.11;36.31;101532.38;4163141;28;20076;-83
2022/06/24 09:34:16;;;;;;;2.42;1.50;;;;;;;23.98;36.45;101522.66;4164180;28;20029;-82
2022/06/24 09:36:17;;;;;;;1.88;1.73;;;;;;;24.11;36.41;101539.94;4148958;28;20498;-82
2022/06/24 09:38:18;;;;;;;1.73;1.10;;;;;;;24.09;36.38;101541.03;4146296;28;20088;-83
2022/06/24 09:40:28;;;;;;;2.38;1.73;;;;;;;24.09;36.56;101543.00;4147696;28;20049;-83